Weather at Schuff Aviation Heliport

Public forecast

Using degrees Fahrenheit for public forecast. Weather courtesy of forecast.io.

Closest aviation weather report (METAR) to Schuff Aviation Heliport

Closest report is Phoenix Sky Harbor International Airport, 4.7 nm (8.7 km) E. Retrieved 2021/06/20 01:51 UTC (1 hour ago):

KPHX 200151Z 26016G23KT 10SM FEW120 FEW250 44/08 A2953 RMK AO2 SLP974 T04440078

Closest aviation forecast (TAF) to Schuff Aviation Heliport

Closest forecast is Phoenix Sky Harbor International Airport, 4.7 nm (8.7 km) E. Retrieved 2021-06-20 00:39 UTC (2 hours ago):

TAF KPHX 192336Z 2000/2106 27015G22KT P6SM SKC FM200300 25010KT P6SM SKC FM201000 11005KT P6SM FEW150 FEW250 FM201700 26010KT P6SM SKC FM201900 27017G24KT P6SM SKC